Date,TemperatureHighF,TemperatureAvgF,TemperatureLowF,DewpointHighF,DewpointAvgF,DewpointLowF,HumidityHigh,HumidityAvg,HumidityLow,PressureMaxIn,PressureMinIn,WindSpeedMaxMPH,WindSpeedAvgMPH,GustSpeedMaxMPH,PrecipitationSumIn
2013-2-20,41,41,40,37,37,36,85,85,85,30.07,30.06,10,6,13,0.00
2013-2-25,41,38,33,38,36,33,100,92,84,30.43,30.40,10,4,12,0.07
2013-2-26,42,41,37,39,38,37,100,89,85,30.51,30.47,14,7,14,0.00
2013-2-27,51,43,30,41,38,30,100,82,60,30.54,30.36,8,2,8,0.01
2013-2-28,51,41,32,42,38,32,100,89,66,30.43,30.28,10,2,10,0.00
2013-3-1,47,44,43,35,33,32,74,65,59,30.36,30.27,15,6,15,0.00
2013-3-4,46,43,42,36,34,32,75,68,62,29.80,29.62,15,5,15,0.00
2013-3-5,47,45,34,36,34,31,95,66,57,29.55,29.44,9,3,9,0.00
2013-3-6,41,40,39,39,37,35,96,90,86,29.55,29.50,18,7,18,0.00
2013-3-7,42,41,41,41,41,41,100,99,95,29.43,29.39,13,7,15,0.13
2013-3-8,40,40,39,39,38,37,100,96,93,29.51,29.43,25,10,25,0.02
2013-3-11,34,30,26,29,24,15,100,80,50,30.03,29.98,29,10,29,0.01
2013-3-12,42,40,35,31,27,24,65,61,56,29.86,29.72,15,4,15,0.01
2013-3-13,42,40,35,28,25,18,74,57,42,29.75,29.73,19,5,19,0.00
2013-3-14,43,40,34,38,34,28,85,79,75,29.77,29.56,18,4,18,0.00
2013-3-15,42,42,42,37,36,36,81,80,79,29.21,29.19,19,8,25,0.00
2013-3-18,37,34,31,36,33,31,100,97,87,29.39,29.28,29,11,29,0.01
2013-3-19,36,34,32,36,34,32,100,100,97,29.52,29.37,34,11,34,0.12
2013-3-20,39,35,32,34,32,28,98,87,69,29.93,29.52,20,6,20,0.00
2013-3-21,39,34,28,32,29,25,100,82,63,29.97,29.88,27,7,27,0.00
2013-3-22,36,35,33,32,29,27,92,80,74,29.90,29.81,42,13,42,0.02
2013-3-23,34,33,32,30,27,22,89,77,65,30.07,29.90,31,12,33,0.04
2013-3-24,36,34,33,27,25,22,76,70,61,30.16,30.04,31,12,31,0.00
2013-3-25,36,34,31,31,26,24,99,74,65,30.17,30.11,26,10,26,0.00
2013-3-26,37,34,31,32,27,23,99,76,59,30.14,30.01,25,8,25,0.00
2013-3-27,38,34,29,33,29,23,100,83,57,30.03,29.94,23,7,23,0.02
2013-3-28,39,35,32,33,28,23,100,78,54,29.97,29.90,13,6,18,0.00
2013-3-29,40,36,32,35,30,25,98,79,59,29.90,29.76,20,5,20,0.02
2013-3-30,39,34,29,33,29,26,100,84,65,29.90,29.81,12,2,12,0.00
2013-3-31,41,34,25,30,25,19,100,72,44,29.92,29.82,15,3,15,0.00
2013-4-1,42,35,27,26,24,21,88,64,49,29.94,29.85,19,5,19,0.00
2013-4-2,41,38,34,35,30,25,91,74,59,30.10,29.93,19,6,19,0.00
2013-4-3,43,37,28,35,29,25,100,76,50,30.17,30.08,13,5,19,0.00
2013-4-4,44,40,36,38,34,20,96,81,44,30.12,30.05,20,7,21,0.01
2013-4-5,42,38,33,38,30,26,99,72,56,30.12,30.05,19,6,19,0.03
2013-4-6,51,39,28,37,30,26,97,72,40,30.15,29.98,15,4,17,0.00
2013-4-7,41,38,36,38,34,30,92,85,72,30.02,29.84,19,5,20,0.00
2013-4-8,43,38,35,34,29,22,91,69,47,29.84,29.59,21,8,22,0.00
2013-4-9,42,38,34,36,29,25,94,71,57,29.61,29.49,23,8,23,0.00
2013-4-10,43,39,36,40,36,34,96,89,78,29.55,29.44,16,6,16,0.02
2013-4-11,46,41,37,37,35,32,95,80,68,29.44,29.25,15,5,15,0.00
2013-4-12,43,40,37,40,36,33,99,87,79,29.47,29.23,16,6,16,0.02
2013-4-13,56,47,39,47,40,34,100,79,46,29.56,29.23,25,3,25,0.00
2013-4-14,57,54,51,52,48,44,91,80,64,29.23,29.11,50,13,50,0.22
2013-4-15,58,52,49,50,45,40,98,80,55,29.52,29.19,43,9,50,0.16
2013-4-16,54,50,45,45,41,32,87,70,46,29.61,29.13,49,10,49,0.24
2013-4-17,56,48,42,51,43,35,99,83,71,29.64,28.89,42,9,44,0.28
2013-4-18,55,49,46,46,42,36,94,77,59,29.69,28.85,34,8,34,0.08
2013-4-19,57,48,40,40,34,30,82,60,40,30.22,29.69,17,4,17,0.00
2013-4-20,56,49,43,41,38,34,84,65,49,30.23,29.91,23,8,29,0.00
2013-4-21,54,48,43,43,40,35,87,74,52,29.91,29.59,26,7,26,0.00
2013-4-22,56,48,41,49,41,37,88,77,55,29.65,29.30,35,8,35,0.03
2013-4-23,56,50,46,43,40,38,87,70,54,29.83,29.47,25,7,25,0.01
2013-4-24,55,50,45,53,41,32,100,74,47,30.00,29.63,21,4,21,0.16
2013-4-25,52,45,41,42,37,34,90,74,59,30.00,29.78,18,4,18,0.02
2013-4-26,50,42,38,39,36,33,94,79,53,29.84,29.61,20,4,20,0.17
2013-4-27,52,46,39,38,31,20,92,60,30,29.92,29.76,18,4,18,0.00
2013-4-28,53,45,39,43,38,33,90,77,61,29.76,29.37,28,7,31,0.05
2013-4-29,54,46,40,39,36,30,89,68,43,29.89,29.41,29,7,31,0.00
2013-4-30,58,48,36,37,31,20,95,58,25,30.08,29.89,16,4,16,0.00
2013-5-1,55,48,42,45,36,27,87,64,38,30.08,29.86,25,6,25,0.03
2013-5-2,56,48,36,44,37,27,92,67,37,30.09,29.76,26,5,26,0.00
2013-5-3,54,50,42,50,46,38,96,86,79,29.77,29.41,25,7,26,0.20
2013-5-4,53,47,38,42,38,31,91,72,48,29.65,29.52,26,6,26,0.00
2013-5-5,64,55,49,54,48,42,86,76,59,29.79,29.63,25,6,25,0.00
2013-5-6,62,55,50,51,48,46,90,77,65,29.82,29.72,22,5,22,0.00
2013-5-7,63,54,43,49,44,36,98,72,44,29.85,29.60,17,4,17,0.00
2013-5-8,60,52,46,53,46,37,100,81,49,29.61,29.23,23,6,23,0.00
2013-5-9,55,49,44,46,41,34,100,75,47,29.33,29.13,25,6,25,0.04
2013-5-10,59,49,44,49,44,40,100,84,55,29.43,29.16,16,4,20,0.10
2013-5-11,51,47,43,48,42,38,91,83,71,29.51,29.24,25,6,26,0.03
2013-5-12,55,49,43,50,43,37,93,82,63,29.56,29.32,25,6,26,0.03
2013-5-13,49,43,36,42,38,35,99,83,65,29.45,29.23,26,7,29,0.15
2013-5-14,55,46,41,45,39,36,91,76,50,29.24,29.10,28,7,30,0.04
2013-5-15,50,44,37,45,40,36,98,86,73,29.24,29.08,21,5,21,0.18
2013-5-16,55,47,39,44,38,32,97,72,43,29.51,29.19,19,5,19,0.04
2013-5-17,61,51,43,44,40,34,100,70,42,29.63,29.51,17,5,19,0.00
2013-5-18,52,50,48,52,48,42,100,96,72,29.62,29.50,28,6,28,0.73
2013-5-19,58,51,47,57,50,47,100,98,87,29.74,29.60,20,3,20,0.01
2013-5-20,73,59,52,63,56,52,100,91,60,29.79,29.57,15,3,15,0.12
2013-5-21,61,54,47,53,48,44,100,79,58,29.85,29.74,16,3,16,0.00
2013-5-22,58,51,44,46,37,27,86,63,33,29.85,29.75,28,6,28,0.03
2013-5-23,50,45,39,36,33,29,80,64,49,29.81,29.68,26,6,27,0.01
2013-5-24,52,47,43,42,38,33,85,71,60,30.01,29.71,29,8,29,0.00
2013-5-25,65,54,39,41,38,29,94,58,31,30.02,29.80,18,4,18,0.00
2013-5-26,61,54,43,48,43,33,85,68,48,29.90,29.49,32,5,32,0.00
2013-5-27,56,52,49,46,44,38,84,74,62,29.50,29.17,32,9,32,0.00
2013-5-28,57,51,47,48,45,42,95,80,60,29.58,29.29,20,5,21,0.00
2013-5-29,62,54,46,54,48,43,97,81,62,29.64,29.57,14,3,14,0.02
2013-5-30,61,58,50,52,47,40,97,68,53,29.84,29.62,15,4,15,0.00
2013-5-31,68,57,49,53,47,39,99,71,40,29.94,29.74,17,4,17,0.00
2013-6-1,61,53,46,49,41,37,85,66,48,30.07,29.91,20,4,20,0.01
2013-6-2,65,54,42,45,41,35,91,64,37,30.19,30.06,18,4,18,0.00
2013-6-3,63,53,47,53,47,43,90,80,69,30.24,30.18,12,3,12,0.00
2013-6-25,64,59,53,50,47,42,85,64,50,30.13,30.03,14,4,14,0.00
2013-6-26,67,58,50,51,47,40,93,69,41,30.16,30.07,13,4,13,0.00
2013-6-27,61,56,50,58,51,44,97,86,76,30.16,29.84,16,4,16,0.02
2013-6-28,64,58,52,57,53,42,100,85,62,29.85,29.57,22,5,22,0.11
2013-6-29,62,56,50,55,48,43,93,76,59,29.87,29.80,17,4,17,0.00
2013-6-30,67,59,53,56,52,46,95,77,61,29.82,29.51,32,6,32,0.02
2013-7-1,64,56,49,49,44,38,97,67,44,29.65,29.56,21,5,23,0.03
2013-7-2,58,55,51,54,49,43,93,82,71,29.63,29.17,26,5,26,0.11
2013-7-3,61,56,55,56,55,54,100,96,82,29.29,29.18,10,1,12,0.01
2013-7-18,82,76,67,63,60,58,79,60,46,30.06,29.92,16,4,16,0.00
2013-7-19,72,66,60,61,58,55,99,77,59,30.10,30.01,17,5,17,0.00
2013-7-20,67,61,57,60,58,55,100,89,73,30.10,29.98,18,6,18,0.00
2013-7-21,64,60,57,59,56,52,98,88,74,30.03,29.86,26,7,26,0.00
2013-7-22,62,60,58,60,59,57,100,97,90,29.86,29.71,19,6,19,0.00
2013-7-23,71,62,59,68,61,59,100,98,84,29.73,29.55,13,4,13,0.75
2013-7-24,70,65,60,64,61,59,100,89,71,29.61,29.53,15,3,15,0.00
2013-7-25,63,60,59,63,60,59,100,100,97,29.61,29.51,13,4,13,0.24
2013-7-26,75,64,57,61,58,53,100,81,48,29.57,29.45,17,3,17,0.04
2013-7-27,70,63,55,61,58,54,100,85,63,29.56,29.38,16,4,16,0.14
2013-7-28,66,60,57,60,59,57,100,97,77,29.38,29.24,13,3,13,1.10
2013-7-29,67,60,55,63,58,55,100,96,80,29.47,29.31,14,3,14,0.58
2013-7-30,70,61,54,57,53,45,99,78,43,29.53,29.39,19,4,19,0.03
2013-7-31,71,61,53,58,52,46,100,74,44,29.58,29.49,13,4,13,0.07
2013-8-1,71,64,58,65,61,58,100,91,73,29.49,29.29,22,4,22,0.21
2013-8-2,72,66,61,64,57,49,100,73,48,29.33,29.21,28,7,28,0.02
2013-8-3,67,62,57,55,51,46,85,70,48,29.57,29.29,28,7,28,0.04
2013-8-4,69,62,56,54,52,48,88,69,52,29.60,29.54,22,5,22,0.00
2013-8-5,64,59,54,57,54,50,97,86,64,29.61,29.44,10,3,12,0.00
2013-8-6,68,59,50,52,48,46,92,70,47,29.72,29.60,15,4,15,0.00
2013-8-7,69,60,50,56,52,49,100,76,54,29.78,29.67,10,2,12,0.00
2013-8-8,68,60,53,60,55,49,100,85,64,29.80,29.64,14,3,14,0.07
2013-8-9,70,62,56,58,54,48,94,76,54,29.79,29.59,23,4,23,0.00
2013-9-13,54,52,49,0,0,0,100,83,67,29.86,29.79,9,2,10,0.09
2013-9-14,61,52,45,0,0,0,100,78,50,29.83,29.68,10,4,13,0.09
2013-9-15,61,52,44,0,0,0,98,82,57,29.68,28.88,32,8,35,0.27
2013-9-16,56,48,42,0,0,0,91,80,65,29.09,29.00,19,6,23,0.00
2013-9-17,56,50,45,0,0,0,94,79,64,29.17,29.02,19,5,20,0.00
2013-9-18,58,49,43,0,0,0,97,81,59,29.50,29.17,19,5,21,0.00
2013-9-19,52,49,45,0,0,0,100,97,90,29.52,29.27,13,3,15,0.23
2013-9-20,61,54,45,0,0,0,100,81,59,29.75,29.52,20,4,20,0.00
2013-9-21,64,59,52,0,0,0,92,83,76,29.80,29.74,20,5,20,0.00
2013-9-22,70,63,58,0,0,0,93,80,62,30.00,29.77,22,6,22,0.00
2013-9-23,65,59,52,0,0,0,100,91,79,30.02,29.82,12,3,15,0.00
2013-9-24,60,56,54,0,0,0,100,100,97,29.82,29.70,13,3,16,0.00
2013-9-25,55,53,50,0,0,0,100,94,80,29.81,29.64,20,6,22,0.02
2013-9-26,59,52,44,0,0,0,100,83,61,29.89,29.79,14,2,14,0.00
2013-9-27,59,56,53,0,0,0,100,93,85,29.81,29.67,7,1,7,0.00
2013-9-28,62,56,49,0,0,0,100,89,69,29.67,29.57,13,3,13,0.00
2013-9-29,62,55,50,0,0,0,94,80,59,29.69,29.61,19,6,19,0.00
2013-9-30,59,55,51,0,0,0,95,80,63,29.67,29.56,18,7,20,0.00
2013-10-1,58,54,51,0,0,0,87,78,62,29.66,29.57,19,6,20,0.00
2013-10-2,59,56,54,0,0,0,98,85,79,29.61,29.49,15,4,19,0.02
2013-10-3,68,60,55,0,0,0,100,93,76,29.51,29.27,15,3,16,0.22
2013-10-4,62,58,54,0,0,0,100,97,85,29.55,29.26,12,2,12,0.13
2013-10-5,61,56,52,0,0,0,99,86,68,29.81,29.55,15,4,20,0.00
2013-10-6,63,60,57,0,0,0,97,88,75,29.80,29.73,19,5,21,0.00
2013-10-7,66,62,59,0,0,0,96,86,70,29.77,29.69,29,6,29,0.01
2013-10-8,61,57,52,0,0,0,98,87,73,29.90,29.68,19,5,22,0.01
2013-10-9,52,49,44,0,0,0,96,74,48,29.93,29.65,23,6,31,0.02
2013-10-10,52,47,43,0,0,0,79,66,51,30.22,29.93,21,6,23,0.00
2013-10-11,52,49,46,0,0,0,81,76,70,30.27,30.20,20,8,23,0.00
2013-10-12,54,50,48,0,0,0,98,88,74,30.24,30.03,20,7,23,0.00
2013-10-13,53,51,48,0,0,0,100,92,83,30.03,29.78,24,8,26,0.04
2013-10-14,54,52,50,0,0,0,100,91,78,29.79,29.68,20,7,21,0.05
2013-10-15,52,50,45,0,0,0,100,96,85,29.78,29.66,15,4,17,0.02
2013-10-16,53,48,44,0,0,0,100,95,82,29.77,29.33,17,4,17,0.66
2013-10-17,50,48,46,0,0,0,100,100,98,29.75,29.39,14,3,14,0.30
2013-10-18,54,50,47,0,0,0,100,95,85,29.77,29.44,16,5,16,0.20
2013-10-19,57,54,51,0,0,0,100,98,91,29.44,29.19,12,2,12,0.39
2013-10-20,60,54,49,0,0,0,100,93,74,29.24,29.13,12,2,12,0.03
2013-10-21,56,53,50,0,0,0,100,94,81,29.28,29.02,15,3,15,0.15
2013-10-22,62,58,52,0,0,0,100,90,74,29.02,28.83,20,4,20,0.47
2013-10-23,58,54,46,0,0,0,98,85,66,29.33,28.73,25,4,25,0.02
2013-10-24,56,49,46,0,0,0,94,83,64,29.67,29.33,14,3,26,0.00
2013-10-25,61,54,47,0,0,0,100,89,75,29.62,29.03,15,5,26,0.11
2013-10-26,56,52,47,0,0,0,95,86,68,29.20,28.87,18,6,26,0.06
2013-10-27,56,50,46,0,0,0,100,87,69,28.95,28.57,21,7,34,0.38
2013-10-28,55,48,45,0,0,0,98,90,73,29.11,28.65,15,5,19,0.06
2013-10-29,52,46,42,0,0,0,95,84,67,29.65,29.11,13,5,18,0.00
2013-10-30,54,48,42,0,0,0,99,88,72,29.71,29.31,29,7,35,0.04
2013-10-31,55,48,43,0,0,0,98,83,67,29.57,29.34,27,7,29,0.20
2013-11-1,52,46,42,0,0,0,93,82,67,29.39,29.30,16,6,25,0.00
2013-11-2,46,42,36,0,0,0,100,94,85,29.35,28.64,14,4,20,0.15
2013-11-3,49,43,38,0,0,0,95,81,62,29.08,28.72,19,5,23,0.05
2013-11-4,49,40,35,0,0,0,100,87,64,29.18,29.03,12,4,15,0.00
2013-11-5,43,36,30,0,0,0,100,97,87,29.17,28.97,12,4,17,0.02
2013-11-6,46,42,38,0,0,0,97,91,85,29.18,29.04,11,5,20,0.04
2013-11-7,49,44,38,0,0,0,98,83,65,29.26,29.14,20,7,30,0.15
2013-11-8,49,43,38,0,0,0,95,90,74,29.36,29.24,14,5,23,0.04
2013-11-9,44,37,33,0,0,0,100,96,84,29.49,29.29,12,4,15,0.06
2013-11-10,48,39,32,0,0,0,100,86,66,29.93,29.48,12,3,15,0.00
2013-11-11,56,48,42,0,0,0,100,87,75,29.79,29.55,15,4,22,0.06
2013-11-12,50,45,42,0,0,0,95,85,67,30.14,29.79,15,5,23,0.07
2013-11-13,49,46,43,0,0,0,95,84,68,30.16,29.57,24,8,29,0.01
2013-11-14,49,44,39,0,0,0,91,72,53,30.28,29.55,17,5,27,0.00
2013-11-15,51,48,40,0,0,0,98,89,81,30.27,30.09,13,6,22,0.00
2013-11-16,53,50,44,0,0,0,95,87,80,30.12,29.93,22,6,27,0.00
2013-11-17,46,42,36,0,0,0,100,94,77,30.16,29.71,7,2,11,0.06
2013-11-18,46,40,34,0,0,0,100,92,70,29.71,29.55,12,4,15,0.00
2013-11-19,41,35,29,0,0,0,100,84,63,29.83,29.38,18,5,28,0.04
2013-11-20,44,41,36,0,0,0,99,83,70,29.60,29.17,16,6,26,0.22
2013-11-21,41,37,31,0,0,0,94,77,64,30.01,29.60,14,4,21,0.00
2013-11-22,41,34,28,0,0,0,98,84,63,30.12,30.01,8,4,10,0.00
2013-11-23,47,40,36,0,0,0,100,88,72,30.26,30.09,8,3,10,0.00
2013-11-24,43,38,34,0,0,0,100,95,86,30.52,30.26,7,3,12,0.00
2013-11-25,43,36,29,0,0,0,100,94,76,30.57,30.48,7,3,9,0.00
2013-11-26,51,46,40,0,0,0,100,97,90,30.49,30.24,17,5,18,0.07
2013-11-27,53,50,48,0,0,0,100,92,83,30.29,30.20,15,5,20,0.01
2013-11-28,48,44,40,0,0,0,100,93,84,30.41,30.10,9,3,17,0.00
2013-11-29,47,44,41,0,0,0,98,80,66,30.10,29.84,19,6,24,0.04
2013-11-30,47,42,36,0,0,0,96,85,65,30.21,30.07,12,5,18,0.00
2013-12-1,52,45,38,0,0,0,100,94,78,30.40,30.13,10,4,17,0.00
2013-12-2,48,44,37,0,0,0,100,89,79,30.40,30.10,15,5,22,0.00
2013-12-3,50,47,41,0,0,0,99,90,84,30.10,29.85,16,6,22,0.08
2013-12-4,44,40,36,0,0,0,98,88,74,30.08,29.82,16,6,32,0.01
2013-12-5,48,39,33,0,0,0,97,82,57,29.95,29.17,31,9,41,0.68
2013-12-6,38,34,32,0,0,0,92,77,66,30.15,29.95,8,3,17,0.00
2013-12-7,48,40,33,0,0,0,100,97,91,30.06,29.69,15,4,22,0.03
2013-12-8,54,51,48,0,0,0,98,94,88,29.71,29.59,19,7,29,0.04
2013-12-9,53,52,49,0,0,0,100,88,78,29.94,29.67,18,6,26,0.02
2013-12-10,53,51,49,0,0,0,89,84,75,29.94,29.89,20,8,27,0.00
2013-12-11,53,49,43,0,0,0,92,81,61,29.97,29.77,16,4,25,0.00
2013-12-12,58,53,48,0,0,0,97,85,51,29.77,29.63,17,5,26,0.13
2013-12-13,56,52,42,0,0,0,91,83,76,29.66,29.42,19,7,26,0.01
2013-12-14,52,46,41,0,0,0,97,85,73,29.71,29.14,34,10,46,0.33
2013-12-15,50,45,41,0,0,0,100,87,65,29.63,29.27,25,6,37,0.23
2013-12-16,49,43,39,0,0,0,93,82,69,29.75,29.27,19,7,29,0.17
2013-12-17,46,42,38,0,0,0,88,78,67,29.86,29.54,21,8,32,0.00
2013-12-18,53,48,42,0,0,0,93,81,66,29.53,28.47,31,10,43,0.15
2013-12-19,45,39,35,0,0,0,98,79,67,29.28,28.61,22,9,41,0.12
2013-12-20,52,44,37,0,0,0,95,88,78,29.52,29.09,26,9,38,0.27
2013-12-21,48,45,39,0,0,0,98,83,74,29.25,29.07,28,9,32,0.37
2013-12-22,41,38,35,0,0,0,100,87,76,29.34,29.09,23,8,32,0.15
2013-12-23,50,42,36,0,0,0,100,86,79,29.32,28.06,23,8,40,0.23
2013-12-24,50,41,38,0,0,0,90,74,57,28.26,28.00,37,13,47,0.30
2013-12-25,45,42,40,0,0,0,89,76,67,28.85,28.25,35,9,46,0.04
2013-12-26,44,40,36,0,0,0,94,84,77,29.09,28.48,22,5,30,0.00
2013-12-27,47,43,38,0,0,0,96,90,75,28.48,27.93,36,12,42,0.51
2013-12-28,43,41,40,0,0,0,94,86,76,29.27,28.49,17,7,33,0.10
2013-12-29,47,42,39,0,0,0,99,88,76,29.59,29.23,20,6,41,0.01
2013-12-30,50,44,40,0,0,0,100,95,86,29.40,29.06,23,6,41,0.91
2013-12-31,46,43,39,0,0,0,91,85,76,29.39,29.03,14,5,25,0.02
2014-1-1,48,42,40,0,0,0,100,88,81,29.09,28.44,18,6,26,0.08
2014-1-2,47,43,41,0,0,0,93,87,76,28.93,28.46,17,6,34,0.01